sensor_id;sensor_type;location;lat;lon;timestamp;temperature;humidity
6964;DHT22;3522;50.856;7.278;2022-12-20T00:02:12;8.40;99.90
6964;DHT22;3522;50.856;7.278;2022-12-20T00:04:38;8.30;99.90
6964;DHT22;3522;50.856;7.278;2022-12-20T00:07:05;8.20;99.90
6964;DHT22;3522;50.856;7.278;2022-12-20T00:09:34;8.20;99.90
6964;DHT22;3522;50.856;7.278;2022-12-20T00:12:00;8.20;99.90
6964;DHT22;3522;50.856;7.278;2022-12-20T00:14:27;8.20;99.90
6964;DHT22;3522;50.856;7.278;2022-12-20T00:16:53;8.20;99.90
6964;DHT22;3522;50.856;7.278;2022-12-20T00:19:20;8.20;99.90
6964;DHT22;3522;50.856;7.278;2022-12-20T00:21:47;8.20;99.90
6964;DHT22;3522;50.856;7.278;2022-12-20T00:24:13;8.20;99.90
6964;DHT22;3522;50.856;7.278;2022-12-20T00:26:41;8.20;99.90
6964;DHT22;3522;50.856;7.278;2022-12-20T00:29:07;8.20;99.90
6964;DHT22;3522;50.856;7.278;2022-12-20T00:31:34;8.20;99.90
6964;DHT22;3522;50.856;7.278;2022-12-20T00:34:01;8.20;99.90
6964;DHT22;3522;50.856;7.278;2022-12-20T00:36:28;8.20;99.90
6964;DHT22;3522;50.856;7.278;2022-12-20T00:38:56;8.20;99.90
6964;DHT22;3522;50.856;7.278;2022-12-20T00:41:24;8.20;99.90
6964;DHT22;3522;50.856;7.278;2022-12-20T00:43:52;8.10;99.90
6964;DHT22;3522;50.856;7.278;2022-12-20T00:46:19;8.10;99.90
6964;DHT22;3522;50.856;7.278;2022-12-20T00:48:47;8.10;99.90
6964;DHT22;3522;50.856;7.278;2022-12-20T00:51:14;8.00;99.90
6964;DHT22;3522;50.856;7.278;2022-12-20T00:53:41;8.00;99.90
6964;DHT22;3522;50.856;7.278;2022-12-20T00:56:09;8.00;99.90
6964;DHT22;3522;50.856;7.278;2022-12-20T00:58:36;8.00;99.90
6964;DHT22;3522;50.856;7.278;2022-12-20T01:01:12;8.00;99.90
6964;DHT22;3522;50.856;7.278;2022-12-20T01:03:39;7.90;99.90
6964;DHT22;3522;50.856;7.278;2022-12-20T01:06:06;7.90;99.90
6964;DHT22;3522;50.856;7.278;2022-12-20T01:08:32;7.90;99.90
6964;DHT22;3522;50.856;7.278;2022-12-20T01:10:59;7.80;99.90
6964;DHT22;3522;50.856;7.278;2022-12-20T01:13:26;7.80;99.90
6964;DHT22;3522;50.856;7.278;2022-12-20T01:15:53;7.80;99.90
6964;DHT22;3522;50.856;7.278;2022-12-20T01:18:21;7.70;99.90
6964;DHT22;3522;50.856;7.278;2022-12-20T01:20:48;7.70;99.90
6964;DHT22;3522;50.856;7.278;2022-12-20T01:23:14;7.80;99.90
6964;DHT22;3522;50.856;7.278;2022-12-20T01:25:41;7.70;99.90
6964;DHT22;3522;50.856;7.278;2022-12-20T01:28:08;7.80;99.90
6964;DHT22;3522;50.856;7.278;2022-12-20T01:30:34;7.90;99.90
6964;DHT22;3522;50.856;7.278;2022-12-20T01:33:04;7.90;99.90
6964;DHT22;3522;50.856;7.278;2022-12-20T01:35:32;7.80;99.90
6964;DHT22;3522;50.856;7.278;2022-12-20T01:37:59;7.80;99.90
6964;DHT22;3522;50.856;7.278;2022-12-20T01:40:26;7.80;99.90
6964;DHT22;3522;50.856;7.278;2022-12-20T01:42:52;7.90;99.90
6964;DHT22;3522;50.856;7.278;2022-12-20T01:45:19;7.80;99.90
6964;DHT22;3522;50.856;7.278;2022-12-20T01:47:48;7.90;99.90
6964;DHT22;3522;50.856;7.278;2022-12-20T01:50:15;7.90;99.90
6964;DHT22;3522;50.856;7.278;2022-12-20T01:52:43;7.90;99.90
6964;DHT22;3522;50.856;7.278;2022-12-20T01:55:12;7.90;99.90
6964;DHT22;3522;50.856;7.278;2022-12-20T01:57:41;7.80;99.90
6964;DHT22;3522;50.856;7.278;2022-12-20T02:00:10;7.90;99.90
6964;DHT22;3522;50.856;7.278;2022-12-20T02:02:37;7.90;99.90
6964;DHT22;3522;50.856;7.278;2022-12-20T02:05:04;7.90;99.90
6964;DHT22;3522;50.856;7.278;2022-12-20T02:07:32;7.90;99.90
6964;DHT22;3522;50.856;7.278;2022-12-20T02:10:00;7.90;99.90
6964;DHT22;3522;50.856;7.278;2022-12-20T02:12:28;7.90;99.90
6964;DHT22;3522;50.856;7.278;2022-12-20T02:15:03;8.00;99.90
6964;DHT22;3522;50.856;7.278;2022-12-20T02:17:34;8.00;99.90
6964;DHT22;3522;50.856;7.278;2022-12-20T02:20:05;8.00;99.90
6964;DHT22;3522;50.856;7.278;2022-12-20T02:22:37;8.00;99.90
6964;DHT22;3522;50.856;7.278;2022-12-20T02:25:12;8.00;99.90
6964;DHT22;3522;50.856;7.278;2022-12-20T02:27:42;8.10;99.90
6964;DHT22;3522;50.856;7.278;2022-12-20T02:30:14;8.10;99.90
6964;DHT22;3522;50.856;7.278;2022-12-20T02:32:43;8.10;99.90
6964;DHT22;3522;50.856;7.278;2022-12-20T02:35:12;8.10;99.90
6964;DHT22;3522;50.856;7.278;2022-12-20T02:37:46;8.10;99.90
6964;DHT22;3522;50.856;7.278;2022-12-20T02:40:12;8.10;99.90
6964;DHT22;3522;50.856;7.278;2022-12-20T02:42:40;8.10;99.90
6964;DHT22;3522;50.856;7.278;2022-12-20T02:45:07;8.00;99.90
6964;DHT22;3522;50.856;7.278;2022-12-20T02:47:41;8.10;99.90
6964;DHT22;3522;50.856;7.278;2022-12-20T02:50:11;8.10;99.90
6964;DHT22;3522;50.856;7.278;2022-12-20T02:52:38;8.10;99.90
6964;DHT22;3522;50.856;7.278;2022-12-20T02:55:05;8.10;99.90
6964;DHT22;3522;50.856;7.278;2022-12-20T02:57:33;8.10;99.90
6964;DHT22;3522;50.856;7.278;2022-12-20T03:00:03;8.10;99.90
6964;DHT22;3522;50.856;7.278;2022-12-20T03:02:32;8.10;99.90
6964;DHT22;3522;50.856;7.278;2022-12-20T03:05:21;8.00;99.90
6964;DHT22;3522;50.856;7.278;2022-12-20T03:07:48;8.00;99.90
6964;DHT22;3522;50.856;7.278;2022-12-20T03:10:15;8.00;99.90
6964;DHT22;3522;50.856;7.278;2022-12-20T03:12:41;8.10;99.90
6964;DHT22;3522;50.856;7.278;2022-12-20T03:15:08;8.00;99.90
6964;DHT22;3522;50.856;7.278;2022-12-20T03:17:35;8.10;99.90
6964;DHT22;3522;50.856;7.278;2022-12-20T03:20:02;8.20;99.90
6964;DHT22;3522;50.856;7.278;2022-12-20T03:22:31;8.20;99.90
6964;DHT22;3522;50.856;7.278;2022-12-20T03:24:58;8.10;99.90
6964;DHT22;3522;50.856;7.278;2022-12-20T03:27:25;8.20;99.90
6964;DHT22;3522;50.856;7.278;2022-12-20T03:29:52;8.20;99.90
6964;DHT22;3522;50.856;7.278;2022-12-20T03:32:19;8.20;99.90
6964;DHT22;3522;50.856;7.278;2022-12-20T03:34:46;8.20;99.90
6964;DHT22;3522;50.856;7.278;2022-12-20T03:37:12;8.30;99.90
6964;DHT22;3522;50.856;7.278;2022-12-20T03:39:40;8.20;99.90
6964;DHT22;3522;50.856;7.278;2022-12-20T03:42:07;8.20;99.90
6964;DHT22;3522;50.856;7.278;2022-12-20T03:44:33;8.20;99.90
6964;DHT22;3522;50.856;7.278;2022-12-20T03:47:00;8.20;99.90
6964;DHT22;3522;50.856;7.278;2022-12-20T03:49:27;8.20;99.90
6964;DHT22;3522;50.856;7.278;2022-12-20T03:51:53;8.20;99.90
6964;DHT22;3522;50.856;7.278;2022-12-20T03:54:20;8.20;99.90
6964;DHT22;3522;50.856;7.278;2022-12-20T03:56:48;8.20;99.90
6964;DHT22;3522;50.856;7.278;2022-12-20T03:59:14;8.20;99.90
6964;DHT22;3522;50.856;7.278;2022-12-20T04:01:41;8.30;99.90
6964;DHT22;3522;50.856;7.278;2022-12-20T04:04:08;8.30;99.90
6964;DHT22;3522;50.856;7.278;2022-12-20T04:06:35;8.30;99.90
6964;DHT22;3522;50.856;7.278;2022-12-20T04:09:01;8.30;99.90
6964;DHT22;3522;50.856;7.278;2022-12-20T04:11:28;8.30;99.90
6964;DHT22;3522;50.856;7.278;2022-12-20T04:13:56;8.30;99.90
6964;DHT22;3522;50.856;7.278;2022-12-20T04:16:24;8.30;99.90
6964;DHT22;3522;50.856;7.278;2022-12-20T04:18:51;8.30;99.90
6964;DHT22;3522;50.856;7.278;2022-12-20T04:21:20;8.40;99.90
6964;DHT22;3522;50.856;7.278;2022-12-20T04:23:47;8.40;99.90
6964;DHT22;3522;50.856;7.278;2022-12-20T04:26:14;8.40;99.90
6964;DHT22;3522;50.856;7.278;2022-12-20T04:28:40;8.40;99.90
6964;DHT22;3522;50.856;7.278;2022-12-20T04:31:08;8.40;99.90
6964;DHT22;3522;50.856;7.278;2022-12-20T04:33:35;8.30;99.90
6964;DHT22;3522;50.856;7.278;2022-12-20T04:36:02;8.30;99.90
6964;DHT22;3522;50.856;7.278;2022-12-20T04:38:29;8.20;99.90
6964;DHT22;3522;50.856;7.278;2022-12-20T04:40:55;8.20;99.90
6964;DHT22;3522;50.856;7.278;2022-12-20T04:43:22;8.10;99.90
6964;DHT22;3522;50.856;7.278;2022-12-20T04:45:50;8.10;99.90
6964;DHT22;3522;50.856;7.278;2022-12-20T04:48:18;8.10;99.90
6964;DHT22;3522;50.856;7.278;2022-12-20T04:50:46;8.10;99.90
6964;DHT22;3522;50.856;7.278;2022-12-20T04:53:13;8.10;99.90
6964;DHT22;3522;50.856;7.278;2022-12-20T04:55:57;7.90;99.90
6964;DHT22;3522;50.856;7.278;2022-12-20T04:58:24;8.00;99.90
6964;DHT22;3522;50.856;7.278;2022-12-20T05:00:51;8.00;99.90
6964;DHT22;3522;50.856;7.278;2022-12-20T05:03:19;8.00;99.90
6964;DHT22;3522;50.856;7.278;2022-12-20T05:05:45;8.00;99.90
6964;DHT22;3522;50.856;7.278;2022-12-20T05:08:12;8.00;99.90
6964;DHT22;3522;50.856;7.278;2022-12-20T05:10:39;7.90;99.90
6964;DHT22;3522;50.856;7.278;2022-12-20T05:13:06;7.90;99.90
6964;DHT22;3522;50.856;7.278;2022-12-20T05:15:35;7.90;99.90
6964;DHT22;3522;50.856;7.278;2022-12-20T05:18:02;7.70;99.90
6964;DHT22;3522;50.856;7.278;2022-12-20T05:20:30;7.90;99.90
6964;DHT22;3522;50.856;7.278;2022-12-20T05:22:57;7.80;99.90
6964;DHT22;3522;50.856;7.278;2022-12-20T05:25:41;7.80;99.90
6964;DHT22;3522;50.856;7.278;2022-12-20T05:28:29;7.80;99.90
6964;DHT22;3522;50.856;7.278;2022-12-20T05:30:55;7.80;99.90
6964;DHT22;3522;50.856;7.278;2022-12-20T05:33:22;7.80;99.90
6964;DHT22;3522;50.856;7.278;2022-12-20T05:35:50;7.80;99.90
6964;DHT22;3522;50.856;7.278;2022-12-20T05:38:17;7.80;99.90
6964;DHT22;3522;50.856;7.278;2022-12-20T05:40:45;7.80;99.90
6964;DHT22;3522;50.856;7.278;2022-12-20T05:43:12;7.80;99.90
6964;DHT22;3522;50.856;7.278;2022-12-20T05:45:39;7.80;99.90
6964;DHT22;3522;50.856;7.278;2022-12-20T05:48:06;7.80;99.90
6964;DHT22;3522;50.856;7.278;2022-12-20T05:50:32;7.80;99.90
6964;DHT22;3522;50.856;7.278;2022-12-20T05:53:00;7.90;99.90
6964;DHT22;3522;50.856;7.278;2022-12-20T05:55:27;7.90;99.90
6964;DHT22;3522;50.856;7.278;2022-12-20T05:57:55;7.90;99.90
6964;DHT22;3522;50.856;7.278;2022-12-20T06:00:21;7.90;99.90
6964;DHT22;3522;50.856;7.278;2022-12-20T06:02:48;7.90;99.90
6964;DHT22;3522;50.856;7.278;2022-12-20T06:05:15;7.80;99.90
6964;DHT22;3522;50.856;7.278;2022-12-20T06:07:41;7.80;99.90
6964;DHT22;3522;50.856;7.278;2022-12-20T06:10:10;7.80;99.90
6964;DHT22;3522;50.856;7.278;2022-12-20T06:12:36;7.80;99.90
6964;DHT22;3522;50.856;7.278;2022-12-20T06:15:03;7.80;99.90
6964;DHT22;3522;50.856;7.278;2022-12-20T06:17:30;7.80;99.90
6964;DHT22;3522;50.856;7.278;2022-12-20T06:19:57;7.80;99.90
6964;DHT22;3522;50.856;7.278;2022-12-20T06:22:23;7.80;99.90
6964;DHT22;3522;50.856;7.278;2022-12-20T06:24:50;7.90;99.90
6964;DHT22;3522;50.856;7.278;2022-12-20T06:27:18;7.90;99.90
6964;DHT22;3522;50.856;7.278;2022-12-20T06:29:46;8.00;99.90
6964;DHT22;3522;50.856;7.278;2022-12-20T06:32:16;8.00;99.90
6964;DHT22;3522;50.856;7.278;2022-12-20T06:34:43;8.00;99.90
6964;DHT22;3522;50.856;7.278;2022-12-20T06:37:09;8.10;99.90
6964;DHT22;3522;50.856;7.278;2022-12-20T06:39:36;8.10;99.90
6964;DHT22;3522;50.856;7.278;2022-12-20T06:42:03;8.10;99.90
6964;DHT22;3522;50.856;7.278;2022-12-20T06:44:31;8.20;99.90
6964;DHT22;3522;50.856;7.278;2022-12-20T06:46:57;8.20;99.90
6964;DHT22;3522;50.856;7.278;2022-12-20T06:49:24;8.20;99.90
6964;DHT22;3522;50.856;7.278;2022-12-20T06:51:50;8.20;99.90
6964;DHT22;3522;50.856;7.278;2022-12-20T06:54:17;8.20;99.90
6964;DHT22;3522;50.856;7.278;2022-12-20T06:56:44;8.20;99.90
6964;DHT22;3522;50.856;7.278;2022-12-20T06:59:10;8.20;99.90
6964;DHT22;3522;50.856;7.278;2022-12-20T07:01:38;8.20;99.90
6964;DHT22;3522;50.856;7.278;2022-12-20T07:04:05;8.20;99.90
6964;DHT22;3522;50.856;7.278;2022-12-20T07:06:31;8.20;99.90
6964;DHT22;3522;50.856;7.278;2022-12-20T07:08:58;8.30;99.90
6964;DHT22;3522;50.856;7.278;2022-12-20T07:11:24;8.20;99.90
6964;DHT22;3522;50.856;7.278;2022-12-20T07:13:53;8.30;99.90
6964;DHT22;3522;50.856;7.278;2022-12-20T07:16:20;8.30;99.90
6964;DHT22;3522;50.856;7.278;2022-12-20T07:18:49;8.30;99.90
6964;DHT22;3522;50.856;7.278;2022-12-20T07:21:16;8.30;99.90
6964;DHT22;3522;50.856;7.278;2022-12-20T07:23:43;8.20;99.90
6964;DHT22;3522;50.856;7.278;2022-12-20T07:26:10;8.30;99.90
6964;DHT22;3522;50.856;7.278;2022-12-20T07:28:37;8.30;99.90
6964;DHT22;3522;50.856;7.278;2022-12-20T07:31:04;8.20;99.90
6964;DHT22;3522;50.856;7.278;2022-12-20T07:33:30;8.30;99.90
6964;DHT22;3522;50.856;7.278;2022-12-20T07:36:03;8.20;99.90
6964;DHT22;3522;50.856;7.278;2022-12-20T07:38:29;8.20;99.90
6964;DHT22;3522;50.856;7.278;2022-12-20T07:40:56;8.10;99.90
6964;DHT22;3522;50.856;7.278;2022-12-20T07:43:23;8.10;99.90
6964;DHT22;3522;50.856;7.278;2022-12-20T07:45:52;8.10;99.90
6964;DHT22;3522;50.856;7.278;2022-12-20T07:48:19;8.10;99.90
6964;DHT22;3522;50.856;7.278;2022-12-20T07:50:45;8.10;99.90
6964;DHT22;3522;50.856;7.278;2022-12-20T07:53:13;8.10;99.90
6964;DHT22;3522;50.856;7.278;2022-12-20T07:55:40;8.00;99.90
6964;DHT22;3522;50.856;7.278;2022-12-20T07:58:07;8.00;99.90
6964;DHT22;3522;50.856;7.278;2022-12-20T08:00:34;8.10;99.90
6964;DHT22;3522;50.856;7.278;2022-12-20T08:03:03;8.00;99.90
6964;DHT22;3522;50.856;7.278;2022-12-20T08:05:31;8.10;99.90
6964;DHT22;3522;50.856;7.278;2022-12-20T08:07:58;8.10;99.90
6964;DHT22;3522;50.856;7.278;2022-12-20T08:10:26;8.10;99.90
6964;DHT22;3522;50.856;7.278;2022-12-20T08:12:53;8.10;99.90
6964;DHT22;3522;50.856;7.278;2022-12-20T08:15:20;8.20;99.90
6964;DHT22;3522;50.856;7.278;2022-12-20T08:17:47;8.40;99.90
6964;DHT22;3522;50.856;7.278;2022-12-20T08:20:13;8.20;99.90
6964;DHT22;3522;50.856;7.278;2022-12-20T08:22:40;8.30;99.90
6964;DHT22;3522;50.856;7.278;2022-12-20T08:25:07;8.30;99.90
6964;DHT22;3522;50.856;7.278;2022-12-20T08:27:37;8.30;99.90
6964;DHT22;3522;50.856;7.278;2022-12-20T08:30:04;8.40;99.90
6964;DHT22;3522;50.856;7.278;2022-12-20T08:32:31;8.40;99.90
6964;DHT22;3522;50.856;7.278;2022-12-20T08:34:58;8.40;99.90
6964;DHT22;3522;50.856;7.278;2022-12-20T08:37:25;8.40;99.90
6964;DHT22;3522;50.856;7.278;2022-12-20T08:39:51;8.40;99.90
6964;DHT22;3522;50.856;7.278;2022-12-20T08:42:18;8.40;99.90
6964;DHT22;3522;50.856;7.278;2022-12-20T08:44:46;8.40;99.90
6964;DHT22;3522;50.856;7.278;2022-12-20T08:47:13;8.40;99.90
6964;DHT22;3522;50.856;7.278;2022-12-20T08:49:39;8.40;99.90
6964;DHT22;3522;50.856;7.278;2022-12-20T08:52:06;8.50;99.90
6964;DHT22;3522;50.856;7.278;2022-12-20T08:54:32;8.50;99.90
6964;DHT22;3522;50.856;7.278;2022-12-20T08:56:59;8.50;99.90
6964;DHT22;3522;50.856;7.278;2022-12-20T08:59:25;8.50;99.90
6964;DHT22;3522;50.856;7.278;2022-12-20T09:01:53;8.50;99.90
6964;DHT22;3522;50.856;7.278;2022-12-20T09:04:20;8.50;99.90
6964;DHT22;3522;50.856;7.278;2022-12-20T09:06:47;8.60;99.90
6964;DHT22;3522;50.856;7.278;2022-12-20T09:09:13;8.50;99.90
6964;DHT22;3522;50.856;7.278;2022-12-20T09:11:40;8.60;99.90
6964;DHT22;3522;50.856;7.278;2022-12-20T09:14:07;8.60;99.90
6964;DHT22;3522;50.856;7.278;2022-12-20T09:16:34;8.60;99.90
6964;DHT22;3522;50.856;7.278;2022-12-20T09:19:02;8.60;99.90
6964;DHT22;3522;50.856;7.278;2022-12-20T09:21:29;8.60;99.90
6964;DHT22;3522;50.856;7.278;2022-12-20T09:23:56;8.60;99.90
6964;DHT22;3522;50.856;7.278;2022-12-20T09:26:23;8.60;99.90
6964;DHT22;3522;50.856;7.278;2022-12-20T09:28:50;8.60;99.90
6964;DHT22;3522;50.856;7.278;2022-12-20T09:31:17;8.60;99.90
6964;DHT22;3522;50.856;7.278;2022-12-20T09:33:44;8.60;99.90
6964;DHT22;3522;50.856;7.278;2022-12-20T09:36:12;8.60;99.90
6964;DHT22;3522;50.856;7.278;2022-12-20T09:38:39;8.60;99.90
6964;DHT22;3522;50.856;7.278;2022-12-20T09:41:06;8.50;99.90
6964;DHT22;3522;50.856;7.278;2022-12-20T09:43:34;8.50;99.90
6964;DHT22;3522;50.856;7.278;2022-12-20T09:46:02;8.60;99.90
6964;DHT22;3522;50.856;7.278;2022-12-20T09:48:29;8.60;99.90
6964;DHT22;3522;50.856;7.278;2022-12-20T09:50:58;8.60;99.90
6964;DHT22;3522;50.856;7.278;2022-12-20T09:53:30;8.60;99.90
6964;DHT22;3522;50.856;7.278;2022-12-20T09:55:59;8.60;99.90
6964;DHT22;3522;50.856;7.278;2022-12-20T09:58:35;8.60;99.90
6964;DHT22;3522;50.856;7.278;2022-12-20T10:01:10;8.60;99.90
6964;DHT22;3522;50.856;7.278;2022-12-20T10:03:39;8.60;99.90
6964;DHT22;3522;50.856;7.278;2022-12-20T10:06:08;8.60;99.90
6964;DHT22;3522;50.856;7.278;2022-12-20T10:08:41;8.60;99.90
6964;DHT22;3522;50.856;7.278;2022-12-20T10:11:09;8.60;99.90
6964;DHT22;3522;50.856;7.278;2022-12-20T10:13:40;8.60;99.90
6964;DHT22;3522;50.856;7.278;2022-12-20T10:16:18;8.60;99.90
6964;DHT22;3522;50.856;7.278;2022-12-20T10:18:51;8.50;99.90
6964;DHT22;3522;50.856;7.278;2022-12-20T10:21:25;8.50;99.90
6964;DHT22;3522;50.856;7.278;2022-12-20T10:23:58;8.40;99.90
6964;DHT22;3522;50.856;7.278;2022-12-20T10:26:26;8.40;99.90
6964;DHT22;3522;50.856;7.278;2022-12-20T10:28:53;8.40;99.90
6964;DHT22;3522;50.856;7.278;2022-12-20T10:31:20;8.40;99.90
6964;DHT22;3522;50.856;7.278;2022-12-20T10:33:47;8.30;99.90
6964;DHT22;3522;50.856;7.278;2022-12-20T10:36:16;8.30;99.90
6964;DHT22;3522;50.856;7.278;2022-12-20T10:38:44;8.30;99.90
6964;DHT22;3522;50.856;7.278;2022-12-20T10:41:13;8.40;99.90
6964;DHT22;3522;50.856;7.278;2022-12-20T10:43:41;8.40;99.90
6964;DHT22;3522;50.856;7.278;2022-12-20T10:46:08;8.30;99.90
6964;DHT22;3522;50.856;7.278;2022-12-20T10:48:36;8.30;99.90
6964;DHT22;3522;50.856;7.278;2022-12-20T10:51:03;8.30;99.90
6964;DHT22;3522;50.856;7.278;2022-12-20T10:53:50;8.40;99.90
6964;DHT22;3522;50.856;7.278;2022-12-20T10:56:19;8.40;99.90
6964;DHT22;3522;50.856;7.278;2022-12-20T10:58:54;8.30;99.90
6964;DHT22;3522;50.856;7.278;2022-12-20T11:01:21;8.30;99.90
6964;DHT22;3522;50.856;7.278;2022-12-20T11:03:49;8.40;99.90
6964;DHT22;3522;50.856;7.278;2022-12-20T11:06:16;8.40;99.90
6964;DHT22;3522;50.856;7.278;2022-12-20T11:08:43;8.40;99.90
6964;DHT22;3522;50.856;7.278;2022-12-20T11:11:11;8.40;99.90
6964;DHT22;3522;50.856;7.278;2022-12-20T11:13:39;8.40;99.90
6964;DHT22;3522;50.856;7.278;2022-12-20T11:16:20;8.40;99.90
6964;DHT22;3522;50.856;7.278;2022-12-20T11:18:49;8.40;99.90
6964;DHT22;3522;50.856;7.278;2022-12-20T11:21:20;8.40;99.90
6964;DHT22;3522;50.856;7.278;2022-12-20T11:23:50;8.50;99.90
6964;DHT22;3522;50.856;7.278;2022-12-20T11:26:25;8.50;99.90
6964;DHT22;3522;50.856;7.278;2022-12-20T11:29:00;8.50;99.90
6964;DHT22;3522;50.856;7.278;2022-12-20T11:31:32;8.60;99.90
6964;DHT22;3522;50.856;7.278;2022-12-20T11:34:02;8.70;99.90
6964;DHT22;3522;50.856;7.278;2022-12-20T11:36:33;8.80;99.90
6964;DHT22;3522;50.856;7.278;2022-12-20T11:39:04;8.90;99.90
6964;DHT22;3522;50.856;7.278;2022-12-20T11:41:36;9.00;99.90
6964;DHT22;3522;50.856;7.278;2022-12-20T11:44:11;9.00;99.90
6964;DHT22;3522;50.856;7.278;2022-12-20T11:46:47;9.00;99.90
6964;DHT22;3522;50.856;7.278;2022-12-20T11:49:19;9.00;99.90
6964;DHT22;3522;50.856;7.278;2022-12-20T11:51:47;9.00;99.90
6964;DHT22;3522;50.856;7.278;2022-12-20T11:54:16;9.10;99.90
6964;DHT22;3522;50.856;7.278;2022-12-20T11:56:45;9.00;99.90
6964;DHT22;3522;50.856;7.278;2022-12-20T11:59:17;9.00;99.90
6964;DHT22;3522;50.856;7.278;2022-12-20T12:01:45;9.00;99.90
6964;DHT22;3522;50.856;7.278;2022-12-20T12:04:13;9.00;99.90
6964;DHT22;3522;50.856;7.278;2022-12-20T12:06:42;9.00;99.90
6964;DHT22;3522;50.856;7.278;2022-12-20T12:09:14;9.00;99.90
6964;DHT22;3522;50.856;7.278;2022-12-20T12:11:41;9.10;99.90
6964;DHT22;3522;50.856;7.278;2022-12-20T12:14:15;9.10;99.90
6964;DHT22;3522;50.856;7.278;2022-12-20T12:16:43;9.10;99.90
6964;DHT22;3522;50.856;7.278;2022-12-20T12:19:12;9.20;99.90
6964;DHT22;3522;50.856;7.278;2022-12-20T12:21:41;9.20;99.90
6964;DHT22;3522;50.856;7.278;2022-12-20T12:24:10;9.20;99.90
6964;DHT22;3522;50.856;7.278;2022-12-20T12:26:42;9.20;99.90
6964;DHT22;3522;50.856;7.278;2022-12-20T12:29:10;9.20;99.90
6964;DHT22;3522;50.856;7.278;2022-12-20T12:31:39;9.20;99.90
6964;DHT22;3522;50.856;7.278;2022-12-20T12:34:10;9.10;99.90
6964;DHT22;3522;50.856;7.278;2022-12-20T12:36:51;9.10;99.90
6964;DHT22;3522;50.856;7.278;2022-12-20T12:42:09;9.10;99.90
6964;DHT22;3522;50.856;7.278;2022-12-20T12:44:39;9.10;99.90
6964;DHT22;3522;50.856;7.278;2022-12-20T12:47:12;9.10;99.90
6964;DHT22;3522;50.856;7.278;2022-12-20T12:49:40;9.10;99.90
6964;DHT22;3522;50.856;7.278;2022-12-20T12:52:06;9.10;99.90
6964;DHT22;3522;50.856;7.278;2022-12-20T12:54:49;9.10;99.90
6964;DHT22;3522;50.856;7.278;2022-12-20T12:57:16;9.20;99.90
6964;DHT22;3522;50.856;7.278;2022-12-20T12:59:44;9.20;99.90
6964;DHT22;3522;50.856;7.278;2022-12-20T13:02:24;9.20;99.90
6964;DHT22;3522;50.856;7.278;2022-12-20T13:04:52;9.20;99.90
6964;DHT22;3522;50.856;7.278;2022-12-20T13:07:26;9.10;99.90
6964;DHT22;3522;50.856;7.278;2022-12-20T13:09:53;9.10;99.90
6964;DHT22;3522;50.856;7.278;2022-12-20T13:18:19;9.30;99.90
6964;DHT22;3522;50.856;7.278;2022-12-20T13:21:14;9.30;99.90
6964;DHT22;3522;50.856;7.278;2022-12-20T13:23:40;9.30;99.90
6964;DHT22;3522;50.856;7.278;2022-12-20T13:28:47;9.40;99.90
6964;DHT22;3522;50.856;7.278;2022-12-20T13:31:29;9.40;99.90
6964;DHT22;3522;50.856;7.278;2022-12-20T13:33:59;9.30;99.90
6964;DHT22;3522;50.856;7.278;2022-12-20T13:36:36;9.30;99.90
6964;DHT22;3522;50.856;7.278;2022-12-20T13:41:45;9.30;99.90
6964;DHT22;3522;50.856;7.278;2022-12-20T13:47:00;9.30;99.90
6964;DHT22;3522;50.856;7.278;2022-12-20T13:49:30;9.30;99.90
6964;DHT22;3522;50.856;7.278;2022-12-20T13:52:06;9.30;99.90
6964;DHT22;3522;50.856;7.278;2022-12-20T13:54:33;9.20;99.90
6964;DHT22;3522;50.856;7.278;2022-12-20T13:57:04;9.30;99.90
6964;DHT22;3522;50.856;7.278;2022-12-20T13:59:32;9.20;99.90
6964;DHT22;3522;50.856;7.278;2022-12-20T14:02:00;9.20;99.90
6964;DHT22;3522;50.856;7.278;2022-12-20T14:04:38;9.30;99.90
6964;DHT22;3522;50.856;7.278;2022-12-20T14:07:05;9.40;99.90
6964;DHT22;3522;50.856;7.278;2022-12-20T14:09:32;9.40;99.90
6964;DHT22;3522;50.856;7.278;2022-12-20T14:12:03;9.40;99.90
6964;DHT22;3522;50.856;7.278;2022-12-20T14:14:30;9.40;99.90
6964;DHT22;3522;50.856;7.278;2022-12-20T14:17:13;9.40;99.90
6964;DHT22;3522;50.856;7.278;2022-12-20T14:19:41;9.40;99.90
6964;DHT22;3522;50.856;7.278;2022-12-20T14:22:07;9.40;99.90
6964;DHT22;3522;50.856;7.278;2022-12-20T14:24:35;9.40;99.90
6964;DHT22;3522;50.856;7.278;2022-12-20T14:27:03;9.30;99.90
6964;DHT22;3522;50.856;7.278;2022-12-20T14:29:29;9.40;99.90
6964;DHT22;3522;50.856;7.278;2022-12-20T14:31:56;9.30;99.90
6964;DHT22;3522;50.856;7.278;2022-12-20T14:34:24;9.30;99.90
6964;DHT22;3522;50.856;7.278;2022-12-20T14:36:58;9.30;99.90
6964;DHT22;3522;50.856;7.278;2022-12-20T14:39:52;9.30;99.90
6964;DHT22;3522;50.856;7.278;2022-12-20T14:42:19;9.30;99.90
6964;DHT22;3522;50.856;7.278;2022-12-20T14:44:46;9.30;99.90
6964;DHT22;3522;50.856;7.278;2022-12-20T14:47:13;9.30;99.90
6964;DHT22;3522;50.856;7.278;2022-12-20T14:49:45;9.30;99.90
6964;DHT22;3522;50.856;7.278;2022-12-20T14:52:15;9.30;99.90
6964;DHT22;3522;50.856;7.278;2022-12-20T14:54:42;9.20;99.90
6964;DHT22;3522;50.856;7.278;2022-12-20T14:57:10;9.20;99.90
6964;DHT22;3522;50.856;7.278;2022-12-20T14:59:37;9.20;99.90
6964;DHT22;3522;50.856;7.278;2022-12-20T15:04:45;9.10;99.90
6964;DHT22;3522;50.856;7.278;2022-12-20T15:10:06;9.10;99.90
6964;DHT22;3522;50.856;7.278;2022-12-20T15:12:33;9.10;99.90
6964;DHT22;3522;50.856;7.278;2022-12-20T15:15:00;9.10;99.90
6964;DHT22;3522;50.856;7.278;2022-12-20T15:17:29;9.10;99.90
6964;DHT22;3522;50.856;7.278;2022-12-20T15:19:55;9.10;99.90
6964;DHT22;3522;50.856;7.278;2022-12-20T15:22:22;9.10;99.90
6964;DHT22;3522;50.856;7.278;2022-12-20T15:24:49;9.10;99.90
6964;DHT22;3522;50.856;7.278;2022-12-20T15:27:16;9.00;99.90
6964;DHT22;3522;50.856;7.278;2022-12-20T15:29:43;9.00;99.90
6964;DHT22;3522;50.856;7.278;2022-12-20T15:32:13;9.00;99.90
6964;DHT22;3522;50.856;7.278;2022-12-20T15:34:41;9.00;99.90
6964;DHT22;3522;50.856;7.278;2022-12-20T15:37:09;9.00;99.90
6964;DHT22;3522;50.856;7.278;2022-12-20T15:39:37;8.90;99.90
6964;DHT22;3522;50.856;7.278;2022-12-20T15:42:04;8.90;99.90
6964;DHT22;3522;50.856;7.278;2022-12-20T15:44:32;8.90;99.90
6964;DHT22;3522;50.856;7.278;2022-12-20T15:47:00;8.90;99.90
6964;DHT22;3522;50.856;7.278;2022-12-20T15:49:28;8.90;99.90
6964;DHT22;3522;50.856;7.278;2022-12-20T15:51:55;8.90;99.90
6964;DHT22;3522;50.856;7.278;2022-12-20T15:54:22;8.90;99.90
6964;DHT22;3522;50.856;7.278;2022-12-20T15:56:51;8.90;99.90
6964;DHT22;3522;50.856;7.278;2022-12-20T15:59:18;8.90;99.90
6964;DHT22;3522;50.856;7.278;2022-12-20T16:01:46;8.90;99.90
6964;DHT22;3522;50.856;7.278;2022-12-20T16:04:13;8.90;99.90
6964;DHT22;3522;50.856;7.278;2022-12-20T16:06:40;8.90;99.90
6964;DHT22;3522;50.856;7.278;2022-12-20T16:09:07;8.90;99.90
6964;DHT22;3522;50.856;7.278;2022-12-20T16:11:34;8.90;99.90
6964;DHT22;3522;50.856;7.278;2022-12-20T16:14:01;8.90;99.90
6964;DHT22;3522;50.856;7.278;2022-12-20T16:16:29;8.90;99.90
6964;DHT22;3522;50.856;7.278;2022-12-20T16:18:58;8.90;99.90
6964;DHT22;3522;50.856;7.278;2022-12-20T16:21:26;8.90;99.90
6964;DHT22;3522;50.856;7.278;2022-12-20T16:23:53;8.90;99.90
6964;DHT22;3522;50.856;7.278;2022-12-20T16:26:20;9.00;99.90
6964;DHT22;3522;50.856;7.278;2022-12-20T16:28:47;9.10;99.90
6964;DHT22;3522;50.856;7.278;2022-12-20T16:31:16;9.10;99.90
6964;DHT22;3522;50.856;7.278;2022-12-20T16:33:45;9.20;99.90
6964;DHT22;3522;50.856;7.278;2022-12-20T16:36:13;9.30;99.90
6964;DHT22;3522;50.856;7.278;2022-12-20T16:38:40;9.40;99.90
6964;DHT22;3522;50.856;7.278;2022-12-20T16:41:10;9.40;99.90
6964;DHT22;3522;50.856;7.278;2022-12-20T16:43:37;9.50;99.90
6964;DHT22;3522;50.856;7.278;2022-12-20T16:46:04;9.60;99.90
6964;DHT22;3522;50.856;7.278;2022-12-20T16:48:31;9.60;99.90